Time;durP1;ratioP1;P1;durP2;ratioP2;P2;SDS_P1;SDS_P2;PMS_P1;PMS_P2;Temp;Humidity;BMP_temperature;BMP_pressure;BME280_temperature;BME280_humidity;BME280_pressure;Samples;Min_cycle;Max_cycle;Signal;HPM_P1;HPM_P2
2022/08/30 00:01:20;;;;;;;7.10;6.57;;;;;;;;;;5050898;28;20442;-76
2022/08/30 00:03:47;;;;;;;6.00;5.60;;;;;;;;;;5051231;28;20452;-76
2022/08/30 00:06:15;;;;;;;6.43;5.90;;;;;;;;;;5051313;28;20872;-76
2022/08/30 00:08:44;;;;;;;7.17;6.43;;;;;;;;;;5055436;28;20449;-76
2022/08/30 00:11:12;;;;;;;7.07;6.50;;;;;;;;;;5055336;28;20474;-76
2022/08/30 00:13:40;;;;;;;6.97;6.47;;;;;;;;;;5052779;28;20445;-76
2022/08/30 00:16:07;;;;;;;6.97;6.33;;;;;;;;;;5052176;28;20622;-75
2022/08/30 00:18:35;;;;;;;7.10;6.50;;;;;;;;;;5052477;28;20464;-76
2022/08/30 00:21:02;;;;;;;6.83;6.33;;;;;;;;;;5052068;28;20438;-76
2022/08/30 00:23:29;;;;;;;6.97;6.37;;;;;;;;;;5050712;28;20799;-75
2022/08/30 00:25:58;;;;;;;7.53;6.90;;;;;;;;;;5050520;28;20834;-75
2022/08/30 00:28:25;;;;;;;6.33;5.83;;;;;;;;;;5050170;28;20449;-76
2022/08/30 00:30:52;;;;;;;6.80;6.20;;;;;;;;;;5050217;28;20504;-76
2022/08/30 00:33:19;;;;;;;7.80;6.43;;;;;;;;;;5049689;28;20945;-75
2022/08/30 00:35:46;;;;;;;7.20;6.53;;;;;;;;;;5050128;28;20499;-76
2022/08/30 00:38:14;;;;;;;7.17;6.50;;;;;;;;;;5050105;28;20456;-76
2022/08/30 00:40:43;;;;;;;7.37;6.60;;;;;;;;;;5046179;28;20840;-75
2022/08/30 00:43:14;;;;;;;6.90;6.30;;;;;;;;;;5049520;28;20528;-76
2022/08/30 00:45:41;;;;;;;8.80;6.60;;;;;;;;;;5049710;28;20968;-76
2022/08/30 00:48:08;;;;;;;7.73;7.00;;;;;;;;;;5050216;28;20999;-76
2022/08/30 00:50:38;;;;;;;8.13;7.27;;;;;;;;;;5049664;28;20477;-76
2022/08/30 00:53:06;;;;;;;8.30;7.50;;;;;;;;;;5050018;28;20445;-76
2022/08/30 00:55:33;;;;;;;7.77;7.07;;;;;;;;;;5050159;28;20937;-76
2022/08/30 00:58:03;;;;;;;8.10;7.30;;;;;;;;;;5049808;28;20988;-76
2022/08/30 01:00:32;;;;;;;8.20;7.40;;;;;;;;;;5050184;28;20437;-76
2022/08/30 01:02:59;;;;;;;7.80;6.53;;;;;;;;;;5050130;28;20480;-77
2022/08/30 01:05:26;;;;;;;8.13;7.43;;;;;;;;;;5050097;28;20454;-76
2022/08/30 01:07:53;;;;;;;7.67;6.93;;;;;;;;;;5049862;28;20454;-76
2022/08/30 01:10:21;;;;;;;7.23;6.63;;;;;;;;;;5052299;28;20523;-76
2022/08/30 01:12:49;;;;;;;7.37;6.77;;;;;;;;;;5053708;28;20827;-76
2022/08/30 01:15:16;;;;;;;8.57;7.77;;;;;;;;;;5054344;28;20453;-76
2022/08/30 01:17:46;;;;;;;8.13;7.00;;;;;;;;;;5053962;28;20469;-76
2022/08/30 01:20:14;;;;;;;8.30;7.47;;;;;;;;;;5053762;28;20453;-77
2022/08/30 01:22:44;;;;;;;7.83;7.23;;;;;;;;;;5053080;28;20491;-76
2022/08/30 01:25:13;;;;;;;8.90;8.10;;;;;;;;;;5053740;28;20441;-76
2022/08/30 01:27:43;;;;;;;8.60;7.80;;;;;;;;;;5053484;28;20944;-76
2022/08/30 01:30:11;;;;;;;11.47;8.13;;;;;;;;;;5053454;28;20508;-76
2022/08/30 01:32:39;;;;;;;8.30;7.20;;;;;;;;;;5053125;28;20445;-76
2022/08/30 01:35:06;;;;;;;8.27;7.47;;;;;;;;;;5053064;28;20941;-76
2022/08/30 01:37:34;;;;;;;8.43;7.70;;;;;;;;;;5053214;28;21000;-75
2022/08/30 01:40:01;;;;;;;10.37;7.67;;;;;;;;;;5053232;28;20570;-76
2022/08/30 01:42:30;;;;;;;8.03;7.33;;;;;;;;;;5053203;28;20816;-75
2022/08/30 01:44:57;;;;;;;8.23;7.50;;;;;;;;;;5053254;28;20503;-76
2022/08/30 01:47:24;;;;;;;8.90;8.10;;;;;;;;;;5052965;28;20473;-75
2022/08/30 01:49:51;;;;;;;8.30;7.60;;;;;;;;;;5052818;28;20507;-75
2022/08/30 01:52:18;;;;;;;8.00;7.30;;;;;;;;;;5053210;28;20522;-76
2022/08/30 01:54:46;;;;;;;8.97;8.27;;;;;;;;;;5052838;28;21003;-75
2022/08/30 01:57:14;;;;;;;7.73;7.03;;;;;;;;;;5052962;28;20535;-76
2022/08/30 01:59:46;;;;;;;8.57;7.60;;;;;;;;;;5053035;28;20491;-75
2022/08/30 02:02:13;;;;;;;8.83;8.10;;;;;;;;;;5052625;28;20528;-76
2022/08/30 02:04:41;;;;;;;8.67;7.90;;;;;;;;;;5052767;28;20449;-76
2022/08/30 02:07:08;;;;;;;8.43;7.60;;;;;;;;;;5052669;28;20995;-76
2022/08/30 02:09:36;;;;;;;8.87;8.07;;;;;;;;;;5052834;28;20441;-76
2022/08/30 02:12:05;;;;;;;8.23;7.43;;;;;;;;;;5053126;28;20560;-75
2022/08/30 02:14:32;;;;;;;8.60;7.90;;;;;;;;;;5052685;28;20745;-76
2022/08/30 02:17:01;;;;;;;7.37;6.63;;;;;;;;;;5052958;28;20835;-76
2022/08/30 02:19:28;;;;;;;7.90;7.30;;;;;;;;;;5053367;28;20445;-78
2022/08/30 02:21:55;;;;;;;8.03;7.27;;;;;;;;;;5052663;28;20469;-77
2022/08/30 02:24:22;;;;;;;8.87;7.57;;;;;;;;;;5052698;28;20999;-77
2022/08/30 02:26:51;;;;;;;7.90;7.30;;;;;;;;;;5053041;28;20466;-77
2022/08/30 02:29:18;;;;;;;8.27;7.43;;;;;;;;;;5053035;28;20460;-78
2022/08/30 02:31:45;;;;;;;8.17;7.33;;;;;;;;;;5052685;28;20577;-77
2022/08/30 02:34:13;;;;;;;8.20;7.40;;;;;;;;;;5052621;28;20456;-77
2022/08/30 02:36:40;;;;;;;12.93;8.00;;;;;;;;;;5052415;28;20973;-77
2022/08/30 02:39:08;;;;;;;8.20;7.20;;;;;;;;;;5052654;28;20462;-76
2022/08/30 02:41:37;;;;;;;9.73;8.90;;;;;;;;;;5052254;28;20495;-78
2022/08/30 02:44:04;;;;;;;7.97;7.27;;;;;;;;;;5052045;28;20446;-77
2022/08/30 02:46:31;;;;;;;7.63;7.03;;;;;;;;;;5052049;28;20829;-77
2022/08/30 02:48:58;;;;;;;8.40;7.60;;;;;;;;;;5052230;28;20927;-77
2022/08/30 02:51:26;;;;;;;8.83;8.10;;;;;;;;;;5053485;28;20473;-78
2022/08/30 02:53:53;;;;;;;8.50;7.80;;;;;;;;;;5058492;28;20445;-77
2022/08/30 02:56:20;;;;;;;9.23;8.37;;;;;;;;;;5055796;28;20473;-77
2022/08/30 02:58:47;;;;;;;7.90;7.20;;;;;;;;;;5051861;28;20965;-77
2022/08/30 03:01:17;;;;;;;8.53;7.57;;;;;;;;;;5052062;28;20941;-78
2022/08/30 03:03:45;;;;;;;8.60;7.90;;;;;;;;;;5051927;28;20449;-78
2022/08/30 03:06:12;;;;;;;9.10;8.20;;;;;;;;;;5051894;28;20473;-77
2022/08/30 03:08:41;;;;;;;9.00;8.20;;;;;;;;;;5051605;28;20454;-77
2022/08/30 03:11:08;;;;;;;8.63;7.83;;;;;;;;;;5052006;28;20492;-77
2022/08/30 03:13:35;;;;;;;9.30;8.33;;;;;;;;;;5054145;28;20449;-77
2022/08/30 03:16:02;;;;;;;8.83;8.03;;;;;;;;;;5063318;28;20503;-77
2022/08/30 03:18:29;;;;;;;8.30;7.70;;;;;;;;;;5058260;28;20791;-77
2022/08/30 03:20:56;;;;;;;9.00;8.40;;;;;;;;;;5052315;28;20446;-77
2022/08/30 03:23:25;;;;;;;8.97;8.07;;;;;;;;;;5051460;28;20976;-77
2022/08/30 03:25:53;;;;;;;8.67;8.00;;;;;;;;;;5051854;28;20453;-77
2022/08/30 03:28:20;;;;;;;8.40;7.60;;;;;;;;;;5051804;28;20454;-78
2022/08/30 03:30:47;;;;;;;9.00;8.10;;;;;;;;;;5052031;28;20476;-78
2022/08/30 03:33:14;;;;;;;8.43;7.63;;;;;;;;;;5050429;28;20880;-77
2022/08/30 03:35:41;;;;;;;8.37;7.53;;;;;;;;;;5054643;28;20449;-77
2022/08/30 03:38:08;;;;;;;8.07;7.30;;;;;;;;;;5059142;28;20453;-77
2022/08/30 03:40:35;;;;;;;8.30;7.47;;;;;;;;;;5058173;28;20446;-76
2022/08/30 03:43:04;;;;;;;7.37;6.77;;;;;;;;;;5057679;28;20495;-76
2022/08/30 03:45:31;;;;;;;9.83;8.97;;;;;;;;;;5055783;28;20817;-76
2022/08/30 03:47:58;;;;;;;8.90;8.10;;;;;;;;;;5055596;28;20465;-77
2022/08/30 03:50:25;;;;;;;8.63;7.93;;;;;;;;;;5056494;28;20481;-77
2022/08/30 03:52:52;;;;;;;8.80;8.10;;;;;;;;;;5056194;28;20499;-76
2022/08/30 03:55:20;;;;;;;8.93;8.13;;;;;;;;;;5052594;28;20507;-77
2022/08/30 03:57:47;;;;;;;9.70;8.70;;;;;;;;;;5049791;28;20500;-77
2022/08/30 04:00:16;;;;;;;9.50;8.60;;;;;;;;;;5047119;28;20921;-78
2022/08/30 04:02:43;;;;;;;8.83;8.13;;;;;;;;;;5050575;28;20438;-76
2022/08/30 04:05:10;;;;;;;9.27;8.37;;;;;;;;;;5051213;28;20441;-78
2022/08/30 04:07:37;;;;;;;8.93;8.23;;;;;;;;;;5051648;28;20461;-77
2022/08/30 04:10:05;;;;;;;9.40;8.60;;;;;;;;;;5051313;28;20454;-76
2022/08/30 04:12:32;;;;;;;9.30;8.23;;;;;;;;;;5050753;28;20527;-77
2022/08/30 04:14:59;;;;;;;10.40;9.07;;;;;;;;;;5051360;28;20441;-78
2022/08/30 04:17:28;;;;;;;10.43;9.60;;;;;;;;;;5051183;28;20458;-77
2022/08/30 04:19:55;;;;;;;9.47;8.67;;;;;;;;;;5051971;28;20453;-77
2022/08/30 04:22:22;;;;;;;9.87;8.77;;;;;;;;;;5054190;28;20434;-77
2022/08/30 04:24:49;;;;;;;10.53;9.53;;;;;;;;;;5053528;28;20464;-77
2022/08/30 04:27:19;;;;;;;10.00;9.30;;;;;;;;;;5052900;28;20453;-77
2022/08/30 04:29:46;;;;;;;11.00;9.90;;;;;;;;;;5054305;28;20533;-77
2022/08/30 04:32:13;;;;;;;11.07;10.17;;;;;;;;;;5050139;28;20619;-77
2022/08/30 04:34:41;;;;;;;11.20;10.07;;;;;;;;;;5050679;28;20449;-78
2022/08/30 04:37:08;;;;;;;10.73;9.73;;;;;;;;;;5051007;28;20474;-77
2022/08/30 04:39:35;;;;;;;11.70;10.47;;;;;;;;;;5050849;28;20449;-77
2022/08/30 04:42:03;;;;;;;11.27;10.27;;;;;;;;;;5051281;28;20446;-76
2022/08/30 04:44:30;;;;;;;10.97;10.00;;;;;;;;;;5051147;28;20464;-77
2022/08/30 04:46:57;;;;;;;11.50;10.60;;;;;;;;;;5050831;28;20516;-77
2022/08/30 04:49:24;;;;;;;11.70;10.57;;;;;;;;;;5051865;28;20810;-77
2022/08/30 04:51:53;;;;;;;9.93;9.23;;;;;;;;;;5051868;28;20551;-77
2022/08/30 04:54:20;;;;;;;10.87;9.87;;;;;;;;;;5051472;28;20453;-77
2022/08/30 04:56:47;;;;;;;12.10;11.00;;;;;;;;;;5051889;28;20519;-77
2022/08/30 04:59:14;;;;;;;12.80;11.00;;;;;;;;;;5051798;28;20437;-77
2022/08/30 05:01:41;;;;;;;10.60;9.70;;;;;;;;;;5056956;28;20897;-77
2022/08/30 05:04:08;;;;;;;12.30;11.20;;;;;;;;;;5051789;28;20457;-78
2022/08/30 05:06:35;;;;;;;13.40;9.67;;;;;;;;;;5051868;28;20516;-77
2022/08/30 05:09:03;;;;;;;13.90;11.27;;;;;;;;;;5050674;28;20449;-77
2022/08/30 05:11:30;;;;;;;12.60;11.27;;;;;;;;;;5051030;28;20478;-77
2022/08/30 05:13:57;;;;;;;11.83;10.73;;;;;;;;;;5050849;28;20464;-77
2022/08/30 05:16:24;;;;;;;14.23;11.23;;;;;;;;;;5052622;28;20465;-77
2022/08/30 05:18:52;;;;;;;11.97;10.70;;;;;;;;;;5055916;28;20441;-77
2022/08/30 05:21:20;;;;;;;11.30;10.33;;;;;;;;;;5059948;28;20448;-77
2022/08/30 05:23:48;;;;;;;10.73;9.73;;;;;;;;;;5060509;28;20448;-77
2022/08/30 05:26:18;;;;;;;15.37;12.43;;;;;;;;;;5059665;28;20469;-78
2022/08/30 05:28:45;;;;;;;12.33;11.13;;;;;;;;;;5059724;28;20901;-78
2022/08/30 05:31:14;;;;;;;12.23;11.00;;;;;;;;;;5057226;28;20434;-77
2022/08/30 05:33:41;;;;;;;11.93;10.77;;;;;;;;;;5057130;28;20457;-77
2022/08/30 05:36:08;;;;;;;10.60;9.67;;;;;;;;;;5052321;28;21055;-78
2022/08/30 05:38:35;;;;;;;15.37;11.07;;;;;;;;;;5051666;28;20449;-78
2022/08/30 05:41:03;;;;;;;12.00;10.93;;;;;;;;;;5051177;28;20457;-78
2022/08/30 05:43:31;;;;;;;14.80;11.67;;;;;;;;;;5050091;28;20915;-76
2022/08/30 05:45:59;;;;;;;13.77;12.33;;;;;;;;;;5050152;28;20477;-77
2022/08/30 05:48:26;;;;;;;14.47;11.63;;;;;;;;;;5051048;28;20468;-77
2022/08/30 05:51:01;;;;;;;19.40;12.83;;;;;;;;;;5050251;28;20454;-77
2022/08/30 05:53:28;;;;;;;15.67;14.00;;;;;;;;;;5050080;28;20499;-77
2022/08/30 05:55:55;;;;;;;14.33;12.80;;;;;;;;;;5052297;28;20472;-77
2022/08/30 05:58:22;;;;;;;14.03;12.33;;;;;;;;;;5055080;28;20452;-76
2022/08/30 06:00:51;;;;;;;16.53;13.43;;;;;;;;;;5054713;28;20437;-79
2022/08/30 06:03:18;;;;;;;14.33;13.03;;;;;;;;;;5053941;28;20521;-77
2022/08/30 06:05:45;;;;;;;18.00;13.60;;;;;;;;;;5054131;28;20445;-78
2022/08/30 06:08:12;;;;;;;13.50;12.10;;;;;;;;;;5054023;28;20850;-77
2022/08/30 06:10:39;;;;;;;14.87;12.90;;;;;;;;;;5053454;28;20447;-77
2022/08/30 06:13:06;;;;;;;14.50;12.87;;;;;;;;;;5055294;28;20531;-78
2022/08/30 06:15:33;;;;;;;14.10;12.60;;;;;;;;;;5054860;28;20507;-79
2022/08/30 06:18:01;;;;;;;16.90;13.00;;;;;;;;;;5054954;28;20462;-78
2022/08/30 06:20:28;;;;;;;15.00;12.77;;;;;;;;;;5058373;28;20473;-78
2022/08/30 06:22:55;;;;;;;16.00;14.30;;;;;;;;;;5060157;28;20496;-77
2022/08/30 06:25:22;;;;;;;14.63;13.33;;;;;;;;;;5054476;28;20437;-78
2022/08/30 06:27:49;;;;;;;14.07;12.67;;;;;;;;;;5054835;28;20465;-77
2022/08/30 06:30:16;;;;;;;14.87;11.90;;;;;;;;;;5054705;28;20445;-78
2022/08/30 06:32:43;;;;;;;14.50;13.00;;;;;;;;;;5053336;28;20511;-78
2022/08/30 06:35:12;;;;;;;13.87;12.57;;;;;;;;;;5056435;28;20475;-78
2022/08/30 06:37:41;;;;;;;14.07;12.50;;;;;;;;;;5062159;28;20468;-79
2022/08/30 06:40:09;;;;;;;16.17;13.37;;;;;;;;;;5061250;28;20452;-78
2022/08/30 06:42:36;;;;;;;20.03;13.50;;;;;;;;;;5060987;28;20861;-78
2022/08/30 06:45:03;;;;;;;14.20;12.70;;;;;;;;;;5060432;28;20980;-78
2022/08/30 06:47:30;;;;;;;15.33;13.73;;;;;;;;;;5060365;28;20466;-78
2022/08/30 06:49:58;;;;;;;17.37;13.47;;;;;;;;;;5054397;28;20948;-78
2022/08/30 06:52:26;;;;;;;14.50;13.10;;;;;;;;;;5054918;28;20875;-78
2022/08/30 06:54:57;;;;;;;14.07;12.87;;;;;;;;;;5044866;28;20454;-77
2022/08/30 06:57:24;;;;;;;13.20;12.10;;;;;;;;;;5053408;28;20977;-78
2022/08/30 06:59:55;;;;;;;13.60;12.37;;;;;;;;;;5053254;28;20494;-78
2022/08/30 07:02:22;;;;;;;14.77;12.60;;;;;;;;;;5053247;28;20488;-78
2022/08/30 07:04:49;;;;;;;14.43;12.90;;;;;;;;;;5053195;28;20449;-78
2022/08/30 07:07:16;;;;;;;14.37;13.00;;;;;;;;;;5052128;28;20462;-78
2022/08/30 07:09:44;;;;;;;15.30;13.70;;;;;;;;;;5053010;28;20519;-79
2022/08/30 07:12:11;;;;;;;14.77;13.37;;;;;;;;;;5053131;28;20492;-78
2022/08/30 07:14:39;;;;;;;13.63;12.33;;;;;;;;;;5053299;28;20458;-79
2022/08/30 07:18:49;;;;;;;14.37;12.40;;;;;;;;;;5053762;28;20461;-78
2022/08/30 07:19:52;;;;;;;13.20;11.93;;;;;;;;;;5052876;28;20441;-78
2022/08/30 07:22:19;;;;;;;12.50;11.20;;;;;;;;;;5052969;28;20437;-77
2022/08/30 07:24:48;;;;;;;12.70;11.47;;;;;;;;;;5052717;28;20449;-78
2022/08/30 07:27:15;;;;;;;13.77;11.67;;;;;;;;;;5053632;28;20469;-77
2022/08/30 07:29:42;;;;;;;17.30;12.13;;;;;;;;;;5053761;28;20445;-78
2022/08/30 07:32:09;;;;;;;13.33;12.00;;;;;;;;;;5053432;28;20481;-77
2022/08/30 07:34:36;;;;;;;12.50;11.30;;;;;;;;;;5052686;28;20445;-78
2022/08/30 07:37:03;;;;;;;15.00;10.83;;;;;;;;;;5052301;28;20477;-78
2022/08/30 07:39:30;;;;;;;11.97;11.03;;;;;;;;;;5051133;28;20449;-77
2022/08/30 07:41:59;;;;;;;14.53;10.87;;;;;;;;;;5051274;28;20445;-77
2022/08/30 07:44:26;;;;;;;11.70;10.60;;;;;;;;;;5051650;28;20445;-78
2022/08/30 07:46:53;;;;;;;14.03;10.60;;;;;;;;;;5051137;28;20473;-77
2022/08/30 07:49:20;;;;;;;12.60;9.80;;;;;;;;;;5051418;28;20937;-77
2022/08/30 07:51:47;;;;;;;11.63;9.30;;;;;;;;;;5051842;28;20445;-77
2022/08/30 07:54:15;;;;;;;10.10;9.10;;;;;;;;;;5052539;28;20446;-78
2022/08/30 07:56:42;;;;;;;10.07;9.27;;;;;;;;;;5052916;28;20557;-78
2022/08/30 07:59:10;;;;;;;10.50;9.60;;;;;;;;;;5052409;28;20448;-78
2022/08/30 08:01:37;;;;;;;11.33;9.07;;;;;;;;;;5051957;28;20507;-77
2022/08/30 08:04:04;;;;;;;10.40;9.43;;;;;;;;;;5052044;28;20909;-77
2022/08/30 08:06:31;;;;;;;10.60;9.50;;;;;;;;;;5052052;28;20465;-77
2022/08/30 08:09:01;;;;;;;11.73;9.30;;;;;;;;;;5051221;28;20453;-77
2022/08/30 08:11:28;;;;;;;9.20;8.30;;;;;;;;;;5051512;28;20453;-77
2022/08/30 08:13:56;;;;;;;9.63;8.70;;;;;;;;;;5046704;28;20478;-77
2022/08/30 08:16:27;;;;;;;10.60;9.37;;;;;;;;;;5039385;28;20478;-78
2022/08/30 08:18:54;;;;;;;11.03;10.03;;;;;;;;;;5049279;28;20453;-78
2022/08/30 08:21:21;;;;;;;11.63;8.93;;;;;;;;;;5053262;28;20811;-76
2022/08/30 08:23:49;;;;;;;10.00;9.13;;;;;;;;;;5069961;28;20437;-76
2022/08/30 08:26:16;;;;;;;9.63;8.60;;;;;;;;;;5075201;28;20445;-78
2022/08/30 08:28:45;;;;;;;10.33;9.23;;;;;;;;;;5076346;28;20434;-75
2022/08/30 08:31:16;;;;;;;10.30;9.30;;;;;;;;;;5076842;28;20450;-76
2022/08/30 08:33:44;;;;;;;15.20;8.80;;;;;;;;;;5076976;28;20555;-75
2022/08/30 08:36:11;;;;;;;9.77;8.80;;;;;;;;;;5075828;28;20473;-78
2022/08/30 08:38:39;;;;;;;11.53;8.23;;;;;;;;;;5073949;28;20480;-78
2022/08/30 08:41:09;;;;;;;9.10;8.30;;;;;;;;;;5069515;28;20468;-74
2022/08/30 08:43:36;;;;;;;9.47;8.10;;;;;;;;;;5053052;28;20446;-77
2022/08/30 08:46:06;;;;;;;8.60;7.80;;;;;;;;;;5051370;28;20505;-79
2022/08/30 08:48:35;;;;;;;8.30;7.57;;;;;;;;;;5050321;28;20598;-77
2022/08/30 08:53:52;;;;;;;7.53;6.83;;;;;;;;;;5052658;28;20852;-77
2022/08/30 08:56:21;;;;;;;7.87;7.27;;;;;;;;;;5051338;28;20457;-78
2022/08/30 08:58:49;;;;;;;8.43;7.40;;;;;;;;;;5050702;28;20441;-79
2022/08/30 09:01:17;;;;;;;7.40;6.70;;;;;;;;;;5052381;28;20453;-78
2022/08/30 09:03:45;;;;;;;7.20;6.70;;;;;;;;;;5055263;28;20442;-78
2022/08/30 09:06:22;;;;;;;10.90;7.00;;;;;;;;;;5055388;28;20465;-76
2022/08/30 09:08:49;;;;;;;7.10;6.47;;;;;;;;;;5051874;28;20453;-77
2022/08/30 09:11:20;;;;;;;7.60;6.90;;;;;;;;;;5052238;28;20471;-78
2022/08/30 09:13:47;;;;;;;7.63;7.03;;;;;;;;;;5052711;28;20478;-77
2022/08/30 09:16:44;;;;;;;7.37;6.87;;;;;;;;;;5052536;28;20469;-77
2022/08/30 09:19:11;;;;;;;7.50;6.90;;;;;;;;;;5053014;28;20838;-78
2022/08/30 09:21:39;;;;;;;6.90;6.40;;;;;;;;;;5051659;28;20657;-77
2022/08/30 09:24:09;;;;;;;6.47;5.97;;;;;;;;;;5053890;28;20515;-77
2022/08/30 09:26:37;;;;;;;7.27;6.57;;;;;;;;;;5055109;28;20466;-78
2022/08/30 09:29:05;;;;;;;6.50;6.00;;;;;;;;;;5054312;28;20438;-77
2022/08/30 09:31:33;;;;;;;6.80;6.30;;;;;;;;;;5054377;28;20446;-79
2022/08/30 09:34:02;;;;;;;6.93;6.20;;;;;;;;;;5054231;28;20481;-78
2022/08/30 09:36:32;;;;;;;7.20;6.43;;;;;;;;;;5055590;28;20869;-78
2022/08/30 09:39:03;;;;;;;8.17;6.80;;;;;;;;;;5055735;28;20441;-78
2022/08/30 09:41:35;;;;;;;7.53;6.90;;;;;;;;;;5055400;28;20475;-78
2022/08/30 09:44:06;;;;;;;6.70;6.20;;;;;;;;;;5055195;28;20465;-78
2022/08/30 09:46:34;;;;;;;6.80;6.30;;;;;;;;;;5054861;28;20485;-77
2022/08/30 09:49:01;;;;;;;8.70;8.03;;;;;;;;;;5054870;28;20453;-77
2022/08/30 09:51:45;;;;;;;5.80;5.50;;;;;;;;;;5055205;28;21003;-78
2022/08/30 09:54:17;;;;;;;7.37;6.70;;;;;;;;;;5054490;28;20542;-79
2022/08/30 09:56:47;;;;;;;6.53;5.93;;;;;;;;;;5055164;28;20468;-77
2022/08/30 09:59:21;;;;;;;6.10;5.70;;;;;;;;;;5054823;28;20929;-78
2022/08/30 10:01:49;;;;;;;6.97;6.27;;;;;;;;;;5055336;28;20437;-79
2022/08/30 10:04:19;;;;;;;6.57;6.07;;;;;;;;;;5054462;28;20440;-77
2022/08/30 10:06:50;;;;;;;7.40;6.70;;;;;;;;;;5054736;28;20522;-78
2022/08/30 10:09:23;;;;;;;6.50;5.90;;;;;;;;;;5054402;28;20451;-77
2022/08/30 10:11:56;;;;;;;6.50;5.90;;;;;;;;;;5054387;28;20469;-78
2022/08/30 10:14:33;;;;;;;6.83;6.33;;;;;;;;;;5053699;28;20519;-77
2022/08/30 10:17:02;;;;;;;6.77;6.20;;;;;;;;;;5054558;28;20473;-79
2022/08/30 10:19:37;;;;;;;6.77;6.17;;;;;;;;;;5054095;28;20507;-78
2022/08/30 10:22:05;;;;;;;6.00;5.60;;;;;;;;;;5054094;28;21042;-77
2022/08/30 10:24:36;;;;;;;7.47;6.80;;;;;;;;;;5054233;28;20491;-77
2022/08/30 10:27:06;;;;;;;6.30;5.80;;;;;;;;;;5054225;28;20462;-78
2022/08/30 10:29:34;;;;;;;6.50;6.00;;;;;;;;;;5053808;28;20479;-78
2022/08/30 10:32:06;;;;;;;6.13;5.73;;;;;;;;;;5042655;28;20957;-79
2022/08/30 10:34:36;;;;;;;6.27;5.87;;;;;;;;;;5048371;28;20482;-78
2022/08/30 10:37:05;;;;;;;6.13;5.63;;;;;;;;;;5052897;28;20972;-77
2022/08/30 10:39:34;;;;;;;5.73;5.33;;;;;;;;;;5054238;28;20438;-77
2022/08/30 10:42:06;;;;;;;6.13;5.67;;;;;;;;;;5054195;28;20437;-78
2022/08/30 10:44:36;;;;;;;5.93;5.53;;;;;;;;;;5053169;28;20488;-77
2022/08/30 10:47:08;;;;;;;6.93;6.43;;;;;;;;;;5053663;28;20465;-78
2022/08/30 10:49:38;;;;;;;6.37;5.87;;;;;;;;;;5053635;28;20499;-78
2022/08/30 10:52:10;;;;;;;5.80;5.40;;;;;;;;;;5053364;28;20933;-77
2022/08/30 10:54:41;;;;;;;5.53;5.03;;;;;;;;;;5053367;28;20558;-78
2022/08/30 10:57:10;;;;;;;5.93;5.53;;;;;;;;;;5053212;28;20480;-77
2022/08/30 10:59:38;;;;;;;6.30;5.80;;;;;;;;;;5054180;28;20453;-80
2022/08/30 11:02:17;;;;;;;5.63;5.13;;;;;;;;;;5054396;28;20449;-78
2022/08/30 11:04:54;;;;;;;6.23;5.73;;;;;;;;;;5053269;28;20434;-79
2022/08/30 11:07:26;;;;;;;4.93;4.63;;;;;;;;;;5054102;28;20469;-79
2022/08/30 11:10:02;;;;;;;5.97;5.47;;;;;;;;;;5053298;28;20449;-77
2022/08/30 11:12:33;;;;;;;6.23;5.47;;;;;;;;;;5033210;28;20558;-78
2022/08/30 11:15:01;;;;;;;5.43;5.13;;;;;;;;;;5032918;28;20587;-78
2022/08/30 11:17:31;;;;;;;5.73;5.23;;;;;;;;;;5033120;28;20473;-77
2022/08/30 11:20:00;;;;;;;5.60;5.13;;;;;;;;;;5032348;28;20528;-79
2022/08/30 11:22:28;;;;;;;6.00;5.60;;;;;;;;;;5032354;28;20884;-78
2022/08/30 11:25:10;;;;;;;5.17;4.77;;;;;;;;;;5033360;28;20813;-79
2022/08/30 11:27:42;;;;;;;5.77;5.30;;;;;;;;;;5031291;28;21011;-78
2022/08/30 11:30:24;;;;;;;6.17;5.20;;;;;;;;;;5032647;28;20438;-78
2022/08/30 11:33:01;;;;;;;5.17;4.87;;;;;;;;;;5020016;28;20450;-78
2022/08/30 11:35:40;;;;;;;6.17;4.47;;;;;;;;;;5034204;28;20454;-78
2022/08/30 11:38:21;;;;;;;6.90;4.50;;;;;;;;;;5032419;28;20454;-78
2022/08/30 11:40:52;;;;;;;5.20;4.70;;;;;;;;;;5050281;28;20434;-77
2022/08/30 11:43:39;;;;;;;5.50;4.57;;;;;;;;;;5049963;28;20810;-77
2022/08/30 11:46:17;;;;;;;4.83;4.37;;;;;;;;;;5039240;28;20675;-78
2022/08/30 11:48:53;;;;;;;8.80;4.90;;;;;;;;;;5052312;28;20507;-77
2022/08/30 11:51:35;;;;;;;5.27;4.97;;;;;;;;;;5051328;28;20489;-78
2022/08/30 11:54:07;;;;;;;5.33;4.93;;;;;;;;;;5051208;28;20503;-78
2022/08/30 11:56:43;;;;;;;5.40;5.00;;;;;;;;;;5053626;28;20515;-79
2022/08/30 11:59:19;;;;;;;5.73;4.97;;;;;;;;;;5052414;28;20901;-77
2022/08/30 12:01:47;;;;;;;5.07;4.77;;;;;;;;;;5052803;28;20429;-77
2022/08/30 12:04:27;;;;;;;4.90;4.60;;;;;;;;;;5052799;28;20468;-77
2022/08/30 12:06:58;;;;;;;5.50;5.03;;;;;;;;;;5057088;28;20996;-79
2022/08/30 12:09:44;;;;;;;6.10;4.47;;;;;;;;;;5055535;28;20463;-79
2022/08/30 12:12:12;;;;;;;5.27;4.87;;;;;;;;;;5054726;28;20525;-78
2022/08/30 12:14:41;;;;;;;5.30;4.80;;;;;;;;;;5054860;28;21021;-80
2022/08/30 12:20:00;;;;;;;5.20;4.80;;;;;;;;;;5055584;28;20873;-79
2022/08/30 12:22:29;;;;;;;5.53;5.13;;;;;;;;;;5054760;28;20453;-78
2022/08/30 12:24:56;;;;;;;5.83;5.53;;;;;;;;;;5056186;28;20442;-79
2022/08/30 12:27:25;;;;;;;6.03;5.40;;;;;;;;;;5054533;28;21028;-77
2022/08/30 12:29:53;;;;;;;5.60;5.10;;;;;;;;;;5058705;28;20479;-80
2022/08/30 12:32:22;;;;;;;5.80;5.37;;;;;;;;;;5059760;28;20503;-77
2022/08/30 12:34:50;;;;;;;5.20;4.80;;;;;;;;;;5057942;28;20555;-78
2022/08/30 12:37:22;;;;;;;5.63;5.33;;;;;;;;;;5053583;28;20539;-78
2022/08/30 12:39:49;;;;;;;5.47;4.97;;;;;;;;;;5050038;28;20544;-77
2022/08/30 12:42:19;;;;;;;5.43;5.07;;;;;;;;;;5054180;28;20499;-78
2022/08/30 12:44:46;;;;;;;6.03;5.53;;;;;;;;;;5053425;28;20434;-77
2022/08/30 12:47:14;;;;;;;5.90;5.40;;;;;;;;;;5052605;28;20477;-77
2022/08/30 12:49:45;;;;;;;5.70;5.40;;;;;;;;;;5055989;28;20855;-78
2022/08/30 12:52:21;;;;;;;5.50;5.00;;;;;;;;;;5054882;28;20457;-78
2022/08/30 12:54:49;;;;;;;5.33;4.83;;;;;;;;;;5052879;28;20481;-77
2022/08/30 12:57:35;;;;;;;5.43;5.03;;;;;;;;;;5052794;28;20523;-79
2022/08/30 13:00:02;;;;;;;5.50;5.10;;;;;;;;;;5053376;28;20446;-77
2022/08/30 13:02:41;;;;;;;5.33;4.93;;;;;;;;;;5050430;28;20446;-76
2022/08/30 13:05:24;;;;;;;5.23;4.83;;;;;;;;;;5058918;28;20452;-76
2022/08/30 13:07:52;;;;;;;5.27;4.87;;;;;;;;;;5069063;28;20461;-76
2022/08/30 13:10:19;;;;;;;5.90;5.50;;;;;;;;;;5059477;28;20442;-77
2022/08/30 13:13:00;;;;;;;5.80;5.50;;;;;;;;;;5053405;28;20430;-79
2022/08/30 13:15:31;;;;;;;5.80;5.30;;;;;;;;;;5055678;28;20475;-77
2022/08/30 13:18:12;;;;;;;5.97;5.47;;;;;;;;;;5057106;28;20965;-78
2022/08/30 13:20:39;;;;;;;4.60;4.30;;;;;;;;;;5057540;28;20939;-74
2022/08/30 13:23:09;;;;;;;4.93;4.67;;;;;;;;;;5051302;28;20484;-77
2022/08/30 13:25:37;;;;;;;5.23;4.93;;;;;;;;;;5059462;28;20440;-79
2022/08/30 13:28:06;;;;;;;5.97;4.73;;;;;;;;;;5057220;28;20833;-78
2022/08/30 13:30:33;;;;;;;5.40;5.00;;;;;;;;;;5055937;28;20808;-78
2022/08/30 13:33:01;;;;;;;4.93;4.63;;;;;;;;;;5054505;28;20445;-78
2022/08/30 13:35:28;;;;;;;5.30;4.90;;;;;;;;;;5055240;28;21034;-77
2022/08/30 13:37:56;;;;;;;5.77;5.27;;;;;;;;;;5055844;28;20531;-77
2022/08/30 13:40:24;;;;;;;5.10;4.70;;;;;;;;;;5057062;28;20499;-77
2022/08/30 13:42:51;;;;;;;5.50;5.20;;;;;;;;;;5056240;28;20471;-77
2022/08/30 13:45:19;;;;;;;5.30;4.80;;;;;;;;;;5053016;28;20461;-78
2022/08/30 13:47:47;;;;;;;5.40;4.97;;;;;;;;;;5055450;28;20492;-77
2022/08/30 13:50:14;;;;;;;5.33;4.93;;;;;;;;;;5054912;28;20446;-77
2022/08/30 13:52:41;;;;;;;5.23;4.90;;;;;;;;;;5055883;28;20465;-78
2022/08/30 13:55:11;;;;;;;5.27;4.90;;;;;;;;;;5056606;28;20523;-77
2022/08/30 13:57:39;;;;;;;5.50;5.10;;;;;;;;;;5056267;28;20620;-78
2022/08/30 14:00:09;;;;;;;4.87;4.47;;;;;;;;;;5057230;28;20445;-78
2022/08/30 14:02:36;;;;;;;4.93;4.53;;;;;;;;;;5058346;28;20453;-79
2022/08/30 14:05:03;;;;;;;5.40;4.90;;;;;;;;;;5056333;28;20430;-79
2022/08/30 14:07:30;;;;;;;5.13;4.83;;;;;;;;;;5055504;28;20489;-77
2022/08/30 14:09:59;;;;;;;5.10;4.80;;;;;;;;;;5057520;28;20433;-78
2022/08/30 14:12:26;;;;;;;4.90;4.57;;;;;;;;;;5057375;28;20448;-78
2022/08/30 14:14:55;;;;;;;5.57;5.10;;;;;;;;;;5056300;28;20533;-79
2022/08/30 14:17:28;;;;;;;5.40;4.90;;;;;;;;;;5059793;28;20456;-77
2022/08/30 14:19:55;;;;;;;5.27;4.90;;;;;;;;;;5056625;28;20445;-79
2022/08/30 14:22:22;;;;;;;5.97;4.33;;;;;;;;;;5056357;28;20437;-78
2022/08/30 14:24:49;;;;;;;5.47;4.97;;;;;;;;;;5057795;28;20429;-77
2022/08/30 14:27:16;;;;;;;4.70;4.50;;;;;;;;;;5056046;28;20458;-77
2022/08/30 14:29:43;;;;;;;5.47;4.97;;;;;;;;;;5055356;28;20445;-77
2022/08/30 14:32:12;;;;;;;4.40;4.20;;;;;;;;;;5056403;28;20457;-78
2022/08/30 14:34:39;;;;;;;5.40;4.47;;;;;;;;;;5055613;28;20555;-78
2022/08/30 14:37:06;;;;;;;4.97;4.57;;;;;;;;;;5055071;28;20466;-78
2022/08/30 14:39:33;;;;;;;5.07;4.57;;;;;;;;;;5051363;28;20524;-77
2022/08/30 14:42:00;;;;;;;5.37;4.93;;;;;;;;;;5054268;28;20441;-77
2022/08/30 14:44:27;;;;;;;5.63;5.13;;;;;;;;;;5055329;28;20503;-78
2022/08/30 14:46:54;;;;;;;5.63;5.27;;;;;;;;;;5054498;28;20825;-79
2022/08/30 14:49:23;;;;;;;4.97;4.57;;;;;;;;;;5053440;28;20441;-77
2022/08/30 14:51:50;;;;;;;5.73;5.43;;;;;;;;;;5054689;28;20442;-77